General Aviation Weather

Text Reports

Enter one or more of the following location identifiers separated by a space:

Zip Code, Four-Character ICAO or Three-Character IATA airport codes.

METAR - Aviation Routine Weather Report
KAKH - Gastonia, North Carolina
Updated at 5:54 AM GMT on July 31, 2014 (1:54 AM EDT):
METAR KAKH 310554Z AUTO 00000KT 8SM FEW110 20/18 A3008 RMK AO2 SLP181 60000 T02000178 10244 20200 50002
TAF - Terminal Area Forecast
KAKH - Gastonia, North Carolina
Updated at 5:54 AM GMT on July 31, 2014 (1:54 AM EDT):
No TAF is currently available for this location.
Decoded:
No decoded TAF is available.
PIREP - Pilot Weather Report
KAKH - Gastonia, North Carolina
Updated at 5:54 AM GMT on July 31, 2014 (1:54 AM EDT):
No PIREP is currently available for this location.
AIRMET - Airmens Meteorological Information
KAKH - Gastonia, North Carolina
Updated at 5:54 AM GMT on July 31, 2014 (1:54 AM EDT):
No AIRMET is currently available for this location.
SIGMET - Significant Meteorological Information
KAKH - Gastonia, North Carolina
Updated at 5:54 AM GMT on July 31, 2014 (1:54 AM EDT):
No SIGMET is currently available for this location.
NOTAM - Notice to Airmen
KAKH - Gastonia, North Carolina
Updated at 5:54 AM GMT on July 31, 2014 (1:54 AM EDT):
No NOTAM is currently available for this location.
Forecast Area
KAKH - Gastonia, North Carolina
Updated at 5:54 AM GMT on July 31, 2014 (1:54 AM EDT):
No NOTAM is currently available for this location.
Aviation Weather Maps